createdAt,value
2023-04-16T00:04:16.090Z,28.73
2023-04-16T00:09:17.632Z,25.75
2023-04-16T00:14:19.087Z,24.45
2023-04-16T00:19:20.519Z,22.20
2023-04-16T00:24:21.962Z,21.17
2023-04-16T00:29:23.380Z,20.83
2023-04-16T00:34:24.835Z,20.58
2023-04-16T00:39:27.283Z,18.98
2023-04-16T00:44:28.717Z,20.40
2023-04-16T00:49:30.136Z,19.20
2023-04-16T00:54:31.572Z,22.92
2023-04-16T00:59:32.992Z,25.55
2023-04-16T01:04:34.588Z,27.88
2023-04-16T01:09:36.089Z,21.65
2023-04-16T01:14:37.540Z,22.05
2023-04-16T01:19:38.988Z,20.48
2023-04-16T01:24:40.487Z,21.45
2023-04-16T01:29:41.957Z,21.23
2023-04-16T01:34:43.418Z,20.73
2023-04-16T01:39:44.860Z,21.35
2023-04-16T01:44:46.298Z,20.13
2023-04-16T01:49:47.764Z,21.50
2023-04-16T01:54:49.181Z,24.13
2023-04-16T01:59:50.625Z,23.27
2023-04-16T02:04:52.058Z,22.33
2023-04-16T02:09:56.113Z,21.17
2023-04-16T02:14:58.440Z,20.63
2023-04-16T02:19:59.893Z,22.17
2023-04-16T02:25:01.335Z,21.52
2023-04-16T02:30:02.777Z,21.63
2023-04-16T02:35:04.213Z,19.63
2023-04-16T02:40:05.661Z,21.95
2023-04-16T02:45:07.104Z,19.13
2023-04-16T02:50:08.557Z,23.85
2023-04-16T02:55:09.979Z,23.35
2023-04-16T03:00:11.392Z,21.65
2023-04-16T03:05:12.972Z,25.10
2023-04-16T03:10:14.423Z,24.95
2023-04-16T03:15:15.886Z,24.13
2023-04-16T03:20:17.321Z,25.73
2023-04-16T03:25:18.765Z,24.75
2023-04-16T03:30:20.205Z,25.20
2023-04-16T03:35:21.644Z,23.50
2023-04-16T03:40:23.076Z,23.67
2023-04-16T03:45:24.499Z,25.10
2023-04-16T03:50:25.979Z,27.55
2023-04-16T03:55:27.427Z,26.40
2023-04-16T04:00:28.866Z,27.10
2023-04-16T04:05:30.318Z,26.77
2023-04-16T04:10:31.747Z,25.90
2023-04-16T04:15:33.187Z,27.08
2023-04-16T04:20:34.650Z,28.02
2023-04-16T04:25:36.100Z,26.00
2023-04-16T04:30:37.545Z,25.60
2023-04-16T04:35:38.996Z,26.00
2023-04-16T04:40:40.486Z,27.10
2023-04-16T04:45:41.978Z,27.13
2023-04-16T04:50:43.405Z,26.02
2023-04-16T04:55:44.831Z,24.80
2023-04-16T05:00:46.268Z,24.55
2023-04-16T05:05:47.726Z,24.10
2023-04-16T05:10:49.183Z,23.60
2023-04-16T05:15:50.660Z,24.92
2023-04-16T05:20:52.094Z,25.33
2023-04-16T05:25:53.526Z,27.10
2023-04-16T05:30:54.996Z,28.85
2023-04-16T05:35:56.443Z,24.13
2023-04-16T05:40:57.890Z,24.02
2023-04-16T05:45:59.410Z,21.20
2023-04-16T05:51:00.870Z,22.75
2023-04-16T05:56:02.326Z,20.02
2023-04-16T06:01:03.766Z,21.85
2023-04-16T06:06:05.275Z,22.00
2023-04-16T06:11:06.762Z,20.13
2023-04-16T06:16:08.297Z,19.48
2023-04-16T06:21:09.780Z,19.08
2023-04-16T06:26:11.200Z,20.52
2023-04-16T06:31:12.660Z,20.77
2023-04-16T06:36:14.145Z,20.35
2023-04-16T06:41:15.568Z,19.95
2023-04-16T06:46:17.025Z,19.67
2023-04-16T06:51:18.499Z,19.17
2023-04-16T06:56:19.953Z,19.20
2023-04-16T07:01:21.438Z,19.92
2023-04-16T07:06:22.921Z,19.42
2023-04-16T07:11:24.368Z,19.90
2023-04-16T07:16:25.871Z,19.15
2023-04-16T07:21:27.946Z,18.80
2023-04-16T07:26:29.392Z,18.17
2023-04-16T07:31:30.880Z,20.00
2023-04-16T07:36:32.327Z,18.35
2023-04-16T07:41:33.909Z,18.50
2023-04-16T07:46:43.537Z,17.08
2023-04-16T07:51:48.619Z,18.77
2023-04-16T07:56:50.077Z,17.98
2023-04-16T08:01:51.576Z,20.35
2023-04-16T08:06:53.103Z,18.75
2023-04-16T08:11:54.539Z,18.42
2023-04-16T08:16:55.971Z,18.05
2023-04-16T08:21:57.433Z,18.65
2023-04-16T08:27:08.113Z,20.05
2023-04-16T08:32:16.822Z,17.52
2023-04-16T08:37:18.254Z,18.08
2023-04-16T08:42:19.701Z,16.83
2023-04-16T08:47:21.153Z,15.00
2023-04-16T08:52:22.604Z,13.73
2023-04-16T08:57:24.171Z,12.43
2023-04-16T09:02:27.112Z,11.45
2023-04-16T09:07:28.657Z,10.68
2023-04-16T09:12:30.075Z,9.68
2023-04-16T09:17:31.562Z,7.85
2023-04-16T09:22:33.046Z,6.88
2023-04-16T09:27:34.514Z,6.97
2023-04-16T09:32:35.949Z,6.75
2023-04-16T09:37:37.374Z,6.75
2023-04-16T09:42:38.820Z,6.82
2023-04-16T09:47:40.341Z,6.78
2023-04-16T09:52:41.793Z,5.75
2023-04-16T09:57:43.251Z,6.03
2023-04-16T10:02:44.773Z,6.18
2023-04-16T10:07:46.289Z,5.60
2023-04-16T10:12:47.728Z,5.72
2023-04-16T10:17:49.193Z,5.20
2023-04-16T10:22:50.641Z,4.90
2023-04-16T10:27:52.090Z,3.95
2023-04-16T10:32:53.630Z,4.07
2023-04-16T10:37:55.106Z,3.72
2023-04-16T10:42:56.597Z,3.42
2023-04-16T10:47:58.094Z,3.33
2023-04-16T10:52:59.632Z,3.25
2023-04-16T10:58:01.091Z,3.22
2023-04-16T11:03:02.654Z,3.65
2023-04-16T11:08:04.146Z,4.38
2023-04-16T11:13:05.563Z,3.95
2023-04-16T11:18:07.139Z,4.22
2023-04-16T11:23:08.670Z,3.35
2023-04-16T11:28:10.085Z,3.80
2023-04-16T11:33:11.561Z,3.42
2023-04-16T11:38:13.109Z,3.47
2023-04-16T11:43:14.580Z,3.80
2023-04-16T11:48:16.091Z,3.88
2023-04-16T11:53:17.517Z,3.80
2023-04-16T11:58:18.969Z,3.53
2023-04-16T12:03:20.613Z,2.97
2023-04-16T12:08:22.149Z,3.45
2023-04-16T12:13:23.600Z,3.80
2023-04-16T12:18:25.056Z,3.42
2023-04-16T12:23:26.476Z,3.20
2023-04-16T12:28:27.930Z,3.15
2023-04-16T12:33:29.365Z,3.47
2023-04-16T12:38:30.831Z,3.38
2023-04-16T12:43:32.293Z,3.90
2023-04-16T12:48:33.739Z,3.70
2023-04-16T12:53:35.214Z,3.60
2023-04-16T12:58:36.661Z,3.45
2023-04-16T13:03:38.254Z,3.22
2023-04-16T13:08:39.782Z,2.90
2023-04-16T13:13:41.234Z,3.30
2023-04-16T13:18:42.686Z,2.80
2023-04-16T13:23:44.426Z,2.95
2023-04-16T13:28:46.044Z,3.28
2023-04-16T13:33:47.494Z,3.13
2023-04-16T13:38:48.932Z,3.00
2023-04-16T13:43:50.399Z,3.35
2023-04-16T13:48:51.830Z,3.30
2023-04-16T13:53:53.306Z,6.43
2023-04-16T13:58:54.773Z,3.38
2023-04-16T14:03:56.319Z,3.10
2023-04-16T14:08:57.800Z,2.47
2023-04-16T14:13:59.230Z,3.13
2023-04-16T14:19:00.682Z,2.80
2023-04-16T14:24:02.114Z,2.13
2023-04-16T14:29:03.543Z,3.05
2023-04-16T14:34:04.979Z,2.20
2023-04-16T14:39:06.606Z,2.20
2023-04-16T14:44:08.042Z,2.20
2023-04-16T14:49:11.990Z,2.05
2023-04-16T14:54:13.765Z,2.20
2023-04-16T14:59:15.202Z,2.17
2023-04-16T15:04:16.795Z,2.00
2023-04-16T15:09:18.311Z,2.00
2023-04-16T15:14:19.740Z,2.03
2023-04-16T15:19:21.203Z,2.33
2023-04-16T15:24:22.650Z,2.20
2023-04-16T15:29:24.105Z,2.20
2023-04-16T15:34:25.546Z,2.67
2023-04-16T15:39:26.998Z,3.15
2023-04-16T15:44:28.433Z,2.25
2023-04-16T15:49:29.856Z,2.40
2023-04-16T15:54:31.283Z,2.53
2023-04-16T15:59:32.747Z,2.28
2023-04-16T16:04:34.308Z,2.28
2023-04-16T16:09:35.832Z,2.83
2023-04-16T16:14:37.272Z,2.88
2023-04-16T16:19:38.699Z,2.70
2023-04-16T16:24:40.164Z,2.40
2023-04-16T16:29:41.607Z,2.17
2023-04-16T16:34:43.033Z,2.50
2023-04-16T16:39:44.464Z,5.50
2023-04-16T16:44:45.897Z,5.90
2023-04-16T16:49:47.350Z,8.85
2023-04-16T16:54:48.771Z,4.75
2023-04-16T16:59:50.200Z,3.25
2023-04-16T17:04:51.644Z,3.13
2023-04-16T17:09:53.104Z,3.17
2023-04-16T17:14:54.552Z,3.95
2023-04-16T17:19:55.985Z,3.72
2023-04-16T17:24:57.442Z,4.07
2023-04-16T17:29:58.933Z,3.67
2023-04-16T17:35:00.392Z,4.47
2023-04-16T17:40:01.865Z,4.00
2023-04-16T17:45:03.373Z,3.72
2023-04-16T17:50:04.855Z,4.78
2023-04-16T17:55:06.292Z,4.80
2023-04-16T18:00:07.763Z,4.97
2023-04-16T18:05:09.334Z,6.65
2023-04-16T18:10:10.889Z,6.32
2023-04-16T18:15:12.337Z,5.25
2023-04-16T18:20:13.801Z,6.55
2023-04-16T18:25:16.091Z,5.80
2023-04-16T18:30:22.135Z,6.63
2023-04-16T18:35:24.835Z,6.47
2023-04-16T18:40:26.398Z,6.32
2023-04-16T18:45:28.317Z,6.93
2023-04-16T18:50:29.926Z,6.70
2023-04-16T18:55:31.404Z,7.50
2023-04-16T19:00:32.892Z,8.05
2023-04-16T19:05:34.377Z,7.97
2023-04-16T19:10:35.851Z,8.15
2023-04-16T19:15:37.312Z,8.55
2023-04-16T19:20:38.751Z,8.45
2023-04-16T19:25:40.221Z,8.18
2023-04-16T19:30:42.417Z,8.23
2023-04-16T19:35:44.172Z,9.68
2023-04-16T19:40:45.598Z,10.93
2023-04-16T19:45:47.088Z,10.93
2023-04-16T19:50:48.595Z,12.90
2023-04-16T19:55:50.124Z,9.85
2023-04-16T20:00:51.608Z,10.73
2023-04-16T20:05:53.066Z,11.10
2023-04-16T20:10:54.583Z,10.43
2023-04-16T20:15:56.040Z,10.68
2023-04-16T20:20:57.466Z,10.63
2023-04-16T20:25:58.889Z,10.95
2023-04-16T20:31:00.407Z,11.70
2023-04-16T20:36:01.865Z,11.52
2023-04-16T20:41:03.290Z,12.25
2023-04-16T20:46:04.745Z,12.23
2023-04-16T20:51:06.211Z,12.27
2023-04-16T20:56:07.660Z,12.98
2023-04-16T21:01:09.161Z,14.75
2023-04-16T21:06:10.624Z,14.43
2023-04-16T21:11:12.069Z,11.35
2023-04-16T21:16:13.540Z,11.48
2023-04-16T21:21:15.008Z,13.73
2023-04-16T21:26:16.532Z,12.43
2023-04-16T21:31:18.015Z,12.60
2023-04-16T21:36:19.487Z,12.27
2023-04-16T21:41:20.907Z,12.50
2023-04-16T21:46:22.382Z,14.10
2023-04-16T21:51:23.844Z,12.95
2023-04-16T21:56:25.289Z,12.80
2023-04-16T22:01:26.812Z,13.32
2023-04-16T22:06:28.328Z,13.10
2023-04-16T22:11:29.778Z,14.60
2023-04-16T22:16:31.250Z,13.05
2023-04-16T22:21:32.726Z,13.40
2023-04-16T22:26:34.148Z,13.15
2023-04-16T22:31:35.617Z,14.55
2023-04-16T22:36:37.093Z,15.55
2023-04-16T22:41:38.528Z,15.50
2023-04-16T22:46:39.948Z,14.93
2023-04-16T22:51:41.378Z,15.88
2023-04-16T22:56:42.797Z,14.77
2023-04-16T23:01:44.306Z,15.38
2023-04-16T23:06:45.763Z,16.60
2023-04-16T23:11:47.207Z,16.63
2023-04-16T23:16:48.642Z,16.52
2023-04-16T23:21:50.101Z,16.85
2023-04-16T23:26:51.534Z,18.25
2023-04-16T23:31:53.051Z,18.17
2023-04-16T23:36:54.662Z,20.02
2023-04-16T23:41:56.118Z,24.15
2023-04-16T23:46:57.604Z,20.13
2023-04-16T23:51:59.069Z,21.48
2023-04-16T23:57:00.485Z,20.92
